KCRE/CRE METAR and TAF weather

Enter ICAO airport designator
Station Type Date Time Source
KCRE METAR 2022/10/01 06:53 UTC NOAA

KCRE 010653Z AUTO 23014KT 10SM OVC026 16/13 A2970 RMK AO1 SLP058 T01560128 $


Station Type Date Time Source
KCRE Decoded METAR 2022/10/01 06:53 UTC NOAA

N. MYRTLE BCH.GRAND STRAND, SC, United States (KCRE) 33-49N 078-43W 10M
Oct 01, 2022 - 02:53 AM EDT / 2022.10.01 0653 UTC
Wind: from the SW (230 degrees) at 16 MPH (14 KT):0
Visibility: 10 mile(s):0
Sky conditions: overcast
Temperature: 60.1 F (15.6 C)
Dew Point: 55.0 F (12.8 C)
Relative Humidity: 83%
Pressure (altimeter): 29.7 in. Hg (1005 hPa)
ob: KCRE 010653Z AUTO 23014KT 10SM OVC026 16/13 A2970 RMK AO1 SLP058 T01560128
cycle: 7

Station Type Date Time Source
KCRE TAF 2022/10/01 06:30 UTC NOAA

TAF KCRE 010527Z 0106/0206 23010G19KT P6SM BKN015
FM011100 23011G18KT P6SM BKN035
FM012200 22007KT P6SM SCT100
FM020200 26004KT P6SM SCT100

Example: see airport list